Time;durP1;ratioP1;P1;durP2;ratioP2;P2;SDS_P1;SDS_P2;PMS_P1;PMS_P2;Temp;Humidity;BMP_temperature;BMP_pressure;BME280_temperature;BME280_humidity;BME280_pressure;Samples;Min_cycle;Max_cycle;Signal;HPM_P1;HPM_P2
2023/10/25 00:01:14;;;;;;;4.10;1.00;;;;;;;;;;5285781;28;20074;-71
2023/10/25 00:03:45;;;;;;;4.90;1.10;;;;;;;;;;5285510;28;20017;-71
2023/10/25 00:06:17;;;;;;;5.63;1.70;;;;;;;;;;5285313;28;20027;-71
2023/10/25 00:08:48;;;;;;;4.00;1.20;;;;;;;;;;5285479;28;20020;-71
2023/10/25 00:11:19;;;;;;;7.32;1.83;;;;;;;;;;5285825;28;20263;-71
2023/10/25 00:13:50;;;;;;;6.90;1.58;;;;;;;;;;5284679;28;20008;-71
2023/10/25 00:16:21;;;;;;;6.45;1.67;;;;;;;;;;5285580;28;20047;-71
2023/10/25 00:18:52;;;;;;;4.55;1.58;;;;;;;;;;5284782;28;20490;-71
2023/10/25 00:21:24;;;;;;;5.78;2.15;;;;;;;;;;5284857;28;20841;-71
2023/10/25 00:23:55;;;;;;;8.15;1.77;;;;;;;;;;5285380;28;20387;-71
2023/10/25 00:26:26;;;;;;;2.97;1.67;;;;;;;;;;5284829;28;20024;-71
2023/10/25 00:28:58;;;;;;;4.90;1.40;;;;;;;;;;5285411;28;20032;-71
2023/10/25 00:31:29;;;;;;;7.75;1.90;;;;;;;;;;5285300;28;20078;-71
2023/10/25 00:34:00;;;;;;;3.38;1.20;;;;;;;;;;5284261;28;20096;-71
2023/10/25 00:36:32;;;;;;;6.54;1.24;;;;;;;;;;5284873;28;20035;-70
2023/10/25 00:39:03;;;;;;;8.35;1.40;;;;;;;;;;5285168;28;20095;-71
2023/10/25 00:41:34;;;;;;;4.10;1.02;;;;;;;;;;5284405;28;20025;-71
2023/10/25 00:44:05;;;;;;;4.10;0.90;;;;;;;;;;5284931;28;20035;-71
2023/10/25 00:46:36;;;;;;;4.93;1.23;;;;;;;;;;5284384;28;20040;-71
2023/10/25 00:49:08;;;;;;;4.28;0.88;;;;;;;;;;5282853;28;20497;-71
2023/10/25 00:51:39;;;;;;;3.10;0.98;;;;;;;;;;5283823;28;20093;-71
2023/10/25 00:54:10;;;;;;;5.28;0.82;;;;;;;;;;5282878;28;20032;-71
2023/10/25 00:56:42;;;;;;;3.20;0.85;;;;;;;;;;5283357;28;20387;-71
2023/10/25 00:59:14;;;;;;;4.25;0.98;;;;;;;;;;5283381;28;20443;-71
2023/10/25 01:01:45;;;;;;;3.70;0.90;;;;;;;;;;5282341;28;20463;-71
2023/10/25 01:04:16;;;;;;;6.55;0.90;;;;;;;;;;5283572;28;20497;-71
2023/10/25 01:06:47;;;;;;;2.90;1.00;;;;;;;;;;5282968;28;20352;-71
2023/10/25 01:09:19;;;;;;;3.38;0.70;;;;;;;;;;5283032;28;20016;-71
2023/10/25 01:11:50;;;;;;;3.90;0.70;;;;;;;;;;5283042;28;20066;-71
2023/10/25 01:14:25;;;;;;;3.95;1.05;;;;;;;;;;5283776;28;20021;-71
2023/10/25 01:16:57;;;;;;;3.38;1.10;;;;;;;;;;5282525;28;20037;-71
2023/10/25 01:19:28;;;;;;;4.82;0.80;;;;;;;;;;5283218;28;20024;-71
2023/10/25 01:21:59;;;;;;;3.28;0.70;;;;;;;;;;5283104;28;20035;-71
2023/10/25 01:24:30;;;;;;;4.63;1.30;;;;;;;;;;5282232;28;20009;-72
2023/10/25 01:27:01;;;;;;;3.58;1.00;;;;;;;;;;5283033;28;20059;-71
2023/10/25 01:29:32;;;;;;;3.47;0.73;;;;;;;;;;5282242;28;20820;-71
2023/10/25 01:32:04;;;;;;;2.80;0.70;;;;;;;;;;5282992;28;20050;-72
2023/10/25 01:34:35;;;;;;;3.85;0.77;;;;;;;;;;5282845;28;20055;-72
2023/10/25 01:37:06;;;;;;;5.25;0.85;;;;;;;;;;5282034;28;20089;-72
2023/10/25 01:39:37;;;;;;;4.22;0.80;;;;;;;;;;5282782;28;20104;-72
2023/10/25 01:42:08;;;;;;;5.07;0.80;;;;;;;;;;5282774;28;20028;-72
2023/10/25 01:44:39;;;;;;;3.88;0.60;;;;;;;;;;5282123;28;20490;-72
2023/10/25 01:47:11;;;;;;;4.85;0.60;;;;;;;;;;5245981;28;1056580;-71
2023/10/25 01:49:43;;;;;;;3.00;0.70;;;;;;;;;;5283905;28;20849;-72
2023/10/25 01:52:14;;;;;;;2.47;0.60;;;;;;;;;;5283028;28;20475;-72
2023/10/25 01:54:46;;;;;;;2.97;0.70;;;;;;;;;;5283434;28;20036;-72
2023/10/25 01:57:17;;;;;;;3.13;0.60;;;;;;;;;;5283463;28;20475;-72
2023/10/25 01:59:48;;;;;;;4.00;0.60;;;;;;;;;;5282597;28;20023;-72
2023/10/25 02:02:19;;;;;;;3.40;0.60;;;;;;;;;;5283896;28;20490;-72
2023/10/25 02:04:51;;;;;;;3.08;0.70;;;;;;;;;;5282226;28;20031;-72
2023/10/25 02:07:22;;;;;;;2.67;0.50;;;;;;;;;;5283698;28;20463;-72
2023/10/25 02:09:53;;;;;;;3.00;0.70;;;;;;;;;;5282930;28;20375;-72
2023/10/25 02:12:24;;;;;;;4.93;0.70;;;;;;;;;;5282527;28;20039;-72
2023/10/25 02:14:55;;;;;;;1.95;0.47;;;;;;;;;;5283043;28;20012;-72
2023/10/25 02:17:26;;;;;;;3.45;0.43;;;;;;;;;;5282203;28;20060;-71
2023/10/25 02:19:58;;;;;;;3.95;0.60;;;;;;;;;;5282307;28;20421;-71
2023/10/25 02:22:29;;;;;;;2.28;0.43;;;;;;;;;;5283024;28;20097;-71
2023/10/25 02:25:00;;;;;;;2.25;0.55;;;;;;;;;;5283033;28;20012;-71
2023/10/25 02:27:31;;;;;;;3.85;0.60;;;;;;;;;;5282051;28;20021;-70
2023/10/25 02:30:04;;;;;;;2.55;0.50;;;;;;;;;;5282691;28;20459;-71
2023/10/25 02:32:35;;;;;;;2.95;0.50;;;;;;;;;;5282164;28;20428;-71
2023/10/25 02:35:07;;;;;;;1.98;0.88;;;;;;;;;;5282710;28;20027;-71
2023/10/25 02:37:38;;;;;;;4.32;0.60;;;;;;;;;;5282459;28;20036;-71
2023/10/25 02:40:09;;;;;;;5.15;0.45;;;;;;;;;;5282010;28;20078;-71
2023/10/25 02:42:44;;;;;;;3.70;0.50;;;;;;;;;;5282831;28;20016;-71
2023/10/25 02:45:15;;;;;;;2.25;0.50;;;;;;;;;;5282751;28;20013;-71
2023/10/25 02:47:46;;;;;;;5.35;0.70;;;;;;;;;;5281387;28;20064;-71
2023/10/25 02:50:17;;;;;;;3.20;0.43;;;;;;;;;;5282946;28;20020;-71
2023/10/25 02:52:49;;;;;;;3.45;0.43;;;;;;;;;;5282112;28;20074;-71
2023/10/25 02:55:20;;;;;;;5.35;0.57;;;;;;;;;;5281992;28;20047;-70
2023/10/25 02:57:51;;;;;;;1.55;0.30;;;;;;;;;;5281854;28;20029;-71
2023/10/25 03:00:23;;;;;;;4.47;0.50;;;;;;;;;;5282582;28;20456;-70
2023/10/25 03:02:54;;;;;;;2.92;0.57;;;;;;;;;;5281668;28;20378;-71
2023/10/25 03:05:25;;;;;;;3.05;0.40;;;;;;;;;;5282137;28;20052;-71
2023/10/25 03:07:57;;;;;;;3.83;0.40;;;;;;;;;;5281387;28;20512;-71
2023/10/25 03:10:28;;;;;;;5.43;0.60;;;;;;;;;;5282051;28;20030;-71
2023/10/25 03:12:59;;;;;;;3.42;0.55;;;;;;;;;;5282349;28;20028;-70
2023/10/25 03:15:31;;;;;;;4.82;0.50;;;;;;;;;;5281264;28;20016;-71
2023/10/25 03:18:02;;;;;;;4.10;0.47;;;;;;;;;;5282026;28;20533;-70
2023/10/25 03:20:34;;;;;;;4.28;0.50;;;;;;;;;;5282012;28;20036;-71
2023/10/25 03:23:05;;;;;;;2.88;0.47;;;;;;;;;;5281340;28;20033;-71
2023/10/25 03:25:36;;;;;;;3.28;0.50;;;;;;;;;;5282112;28;20017;-71
2023/10/25 03:28:07;;;;;;;2.75;0.50;;;;;;;;;;5281728;28;20031;-70
2023/10/25 03:30:38;;;;;;;2.60;0.40;;;;;;;;;;5281082;28;20047;-70
2023/10/25 03:33:10;;;;;;;3.40;0.40;;;;;;;;;;5281924;28;20463;-70
2023/10/25 03:35:41;;;;;;;2.80;0.55;;;;;;;;;;5281783;28;20021;-70
2023/10/25 03:38:12;;;;;;;2.10;0.50;;;;;;;;;;5281268;28;20097;-70
2023/10/25 03:40:44;;;;;;;3.83;0.50;;;;;;;;;;5281812;28;20020;-70
2023/10/25 03:43:15;;;;;;;1.30;0.40;;;;;;;;;;5281442;28;20021;-70
2023/10/25 03:45:46;;;;;;;1.50;0.50;;;;;;;;;;5281377;28;20028;-70
2023/10/25 03:48:17;;;;;;;2.72;0.40;;;;;;;;;;5281872;28;20407;-70
2023/10/25 03:50:49;;;;;;;3.58;0.50;;;;;;;;;;5280769;28;20086;-70
2023/10/25 03:53:20;;;;;;;2.08;0.50;;;;;;;;;;5282050;28;20029;-70
2023/10/25 03:55:52;;;;;;;2.15;0.43;;;;;;;;;;5281360;28;20104;-70
2023/10/25 03:58:24;;;;;;;3.35;0.50;;;;;;;;;;5280901;28;20475;-70
2023/10/25 04:00:56;;;;;;;3.22;0.50;;;;;;;;;;5281765;28;20416;-71
2023/10/25 04:03:28;;;;;;;2.40;0.50;;;;;;;;;;5281756;28;20056;-71
2023/10/25 04:05:59;;;;;;;3.40;0.60;;;;;;;;;;5280865;28;20407;-71
2023/10/25 04:08:31;;;;;;;3.33;0.45;;;;;;;;;;5281516;28;20024;-70
2023/10/25 04:11:02;;;;;;;2.65;0.50;;;;;;;;;;5280606;28;20040;-71
2023/10/25 04:13:33;;;;;;;3.83;0.50;;;;;;;;;;5281109;28;20036;-70
2023/10/25 04:16:06;;;;;;;3.20;0.68;;;;;;;;;;5281214;28;20036;-71
2023/10/25 04:18:37;;;;;;;5.30;0.50;;;;;;;;;;5280571;28;20024;-71
2023/10/25 04:21:10;;;;;;;2.17;0.50;;;;;;;;;;5281322;28;20459;-70
2023/10/25 04:23:41;;;;;;;3.65;0.50;;;;;;;;;;5280894;28;20515;-70
2023/10/25 04:26:13;;;;;;;2.70;0.55;;;;;;;;;;5280473;28;20095;-70
2023/10/25 04:28:44;;;;;;;3.20;0.50;;;;;;;;;;5280750;28;20023;-71
2023/10/25 04:31:17;;;;;;;1.92;0.65;;;;;;;;;;5280925;28;20375;-71
2023/10/25 04:33:49;;;;;;;2.92;0.60;;;;;;;;;;5279871;28;20455;-71
2023/10/25 04:36:20;;;;;;;2.00;0.50;;;;;;;;;;5281297;28;20037;-71
2023/10/25 04:38:51;;;;;;;4.15;0.60;;;;;;;;;;5280907;28;20036;-71
2023/10/25 04:41:22;;;;;;;1.36;0.60;;;;;;;;;;5283709;28;20020;-71
2023/10/25 04:43:54;;;;;;;3.58;0.65;;;;;;;;;;5284563;28;20021;-71
2023/10/25 04:46:26;;;;;;;2.22;0.68;;;;;;;;;;5283795;28;20025;-72
2023/10/25 04:48:57;;;;;;;4.43;0.80;;;;;;;;;;5283996;28;20052;-71
2023/10/25 04:51:28;;;;;;;2.90;0.65;;;;;;;;;;5284203;28;20048;-71
2023/10/25 04:53:59;;;;;;;4.05;0.88;;;;;;;;;;5283940;28;20056;-71
2023/10/25 04:56:31;;;;;;;5.65;0.82;;;;;;;;;;5284541;28;20036;-72
2023/10/25 04:59:02;;;;;;;5.25;1.00;;;;;;;;;;5284497;28;20463;-71
2023/10/25 05:01:33;;;;;;;4.60;0.70;;;;;;;;;;5284070;28;20558;-71
2023/10/25 05:04:04;;;;;;;2.47;0.60;;;;;;;;;;5284547;28;20037;-71
2023/10/25 05:06:35;;;;;;;3.60;0.70;;;;;;;;;;5284528;28;20025;-71
2023/10/25 05:09:07;;;;;;;3.05;0.90;;;;;;;;;;5283491;28;20021;-71
2023/10/25 05:11:38;;;;;;;5.35;0.70;;;;;;;;;;5284587;28;20452;-71
2023/10/25 05:14:09;;;;;;;5.47;0.88;;;;;;;;;;5284463;28;20426;-71
2023/10/25 05:16:41;;;;;;;2.45;0.73;;;;;;;;;;5283381;28;20028;-71
2023/10/25 05:19:12;;;;;;;3.97;0.80;;;;;;;;;;5284370;28;20100;-72
2023/10/25 05:21:45;;;;;;;3.80;0.60;;;;;;;;;;5283270;28;20028;-71
2023/10/25 05:24:16;;;;;;;4.05;0.75;;;;;;;;;;5284659;28;20031;-71
2023/10/25 05:26:48;;;;;;;3.42;0.68;;;;;;;;;;5283893;28;20024;-71
2023/10/25 05:29:19;;;;;;;3.78;0.60;;;;;;;;;;5283607;28;20016;-71
2023/10/25 05:31:51;;;;;;;3.67;0.60;;;;;;;;;;5283609;28;20383;-71
2023/10/25 05:34:23;;;;;;;2.63;0.70;;;;;;;;;;5284269;28;20369;-71
2023/10/25 05:36:54;;;;;;;5.78;0.85;;;;;;;;;;5283075;28;20062;-71
2023/10/25 05:39:25;;;;;;;2.53;0.70;;;;;;;;;;5283739;28;20020;-73
2023/10/25 05:42:01;;;;;;;3.25;0.68;;;;;;;;;;5283600;28;20387;-72
2023/10/25 05:44:33;;;;;;;3.90;0.55;;;;;;;;;;5282958;28;20115;-72
2023/10/25 05:47:04;;;;;;;4.28;0.60;;;;;;;;;;5283508;28;20140;-72
2023/10/25 05:49:35;;;;;;;1.80;0.70;;;;;;;;;;5283052;28;20017;-73
2023/10/25 05:52:07;;;;;;;4.20;1.10;;;;;;;;;;5282554;28;20088;-73
2023/10/25 05:54:39;;;;;;;4.20;0.60;;;;;;;;;;5283351;28;20013;-72
2023/10/25 05:57:12;;;;;;;3.95;0.50;;;;;;;;;;5282422;28;20036;-72
2023/10/25 05:59:44;;;;;;;4.13;0.77;;;;;;;;;;5283583;28;20478;-73
2023/10/25 06:02:17;;;;;;;4.60;0.95;;;;;;;;;;5283563;28;20025;-73
2023/10/25 06:04:49;;;;;;;2.72;0.60;;;;;;;;;;5282310;28;20471;-74
2023/10/25 06:07:20;;;;;;;1.60;0.50;;;;;;;;;;5283465;28;20073;-73
2023/10/25 06:09:52;;;;;;;3.55;0.50;;;;;;;;;;5282482;28;20100;-72
2023/10/25 06:12:23;;;;;;;3.00;0.50;;;;;;;;;;5282328;28;20339;-73
2023/10/25 06:14:54;;;;;;;4.75;0.60;;;;;;;;;;5283065;28;20012;-72
2023/10/25 06:17:25;;;;;;;2.95;0.50;;;;;;;;;;5282852;28;20033;-73
2023/10/25 06:19:56;;;;;;;2.35;0.50;;;;;;;;;;5281903;28;20029;-71
2023/10/25 06:22:28;;;;;;;5.02;0.50;;;;;;;;;;5282452;28;20375;-72
2023/10/25 06:24:59;;;;;;;3.35;0.50;;;;;;;;;;5282104;28;20669;-72
2023/10/25 06:27:30;;;;;;;1.85;0.40;;;;;;;;;;5282786;28;20073;-71
2023/10/25 06:30:02;;;;;;;4.18;0.70;;;;;;;;;;5282646;28;20020;-72
2023/10/25 06:32:33;;;;;;;4.03;0.50;;;;;;;;;;5281861;28;20020;-73
2023/10/25 06:35:04;;;;;;;3.53;0.50;;;;;;;;;;5282493;28;20530;-72
2023/10/25 06:37:36;;;;;;;2.20;0.40;;;;;;;;;;5282408;28;20413;-72
2023/10/25 06:40:07;;;;;;;3.30;0.88;;;;;;;;;;5281976;28;20021;-72
2023/10/25 06:42:38;;;;;;;5.50;0.60;;;;;;;;;;5282546;28;20025;-71
2023/10/25 06:45:14;;;;;;;3.40;0.50;;;;;;;;;;5282099;28;20066;-73
2023/10/25 06:47:46;;;;;;;3.00;0.60;;;;;;;;;;5280859;28;20051;-72
2023/10/25 06:50:17;;;;;;;2.10;0.52;;;;;;;;;;5282349;28;20379;-73
2023/10/25 06:52:48;;;;;;;2.60;0.50;;;;;;;;;;5281237;28;20021;-73
2023/10/25 06:55:20;;;;;;;2.88;0.50;;;;;;;;;;5282410;28;20052;-73
2023/10/25 06:57:51;;;;;;;4.28;0.68;;;;;;;;;;5281591;28;20033;-73
2023/10/25 07:00:23;;;;;;;4.57;0.68;;;;;;;;;;5281458;28;20024;-73
2023/10/25 07:02:59;;;;;;;2.00;0.70;;;;;;;;;;5281840;28;20021;-73
2023/10/25 07:05:30;;;;;;;5.82;0.65;;;;;;;;;;5282047;28;20055;-72
2023/10/25 07:08:01;;;;;;;4.85;0.63;;;;;;;;;;5271441;28;20100;-72
2023/10/25 07:10:33;;;;;;;2.80;0.50;;;;;;;;;;5279391;28;20021;-70
2023/10/25 07:13:04;;;;;;;4.05;0.40;;;;;;;;;;5280525;28;20109;-72
2023/10/25 07:15:36;;;;;;;5.13;0.50;;;;;;;;;;5279875;28;20103;-73
2023/10/25 07:18:07;;;;;;;2.95;0.50;;;;;;;;;;5278636;28;20036;-72
2023/10/25 07:20:38;;;;;;;2.38;0.50;;;;;;;;;;5280033;28;20103;-72
2023/10/25 07:23:09;;;;;;;3.78;0.50;;;;;;;;;;5280497;28;20107;-72
2023/10/25 07:25:41;;;;;;;7.20;2.22;;;;;;;;;;5281713;28;20483;-73
2023/10/25 07:28:12;;;;;;;3.60;0.63;;;;;;;;;;5280958;28;20417;-72
2023/10/25 07:30:43;;;;;;;4.15;0.60;;;;;;;;;;5281720;28;20036;-72
2023/10/25 07:33:15;;;;;;;3.38;0.60;;;;;;;;;;5281422;28;20070;-72
2023/10/25 07:35:46;;;;;;;2.85;0.82;;;;;;;;;;5280503;28;20043;-73
2023/10/25 07:38:17;;;;;;;1.80;0.93;;;;;;;;;;5281975;28;20028;-72
2023/10/25 07:40:49;;;;;;;4.82;1.00;;;;;;;;;;5281291;28;20021;-72
2023/10/25 07:43:21;;;;;;;2.50;0.50;;;;;;;;;;5280886;28;20070;-73
2023/10/25 07:45:52;;;;;;;2.80;0.47;;;;;;;;;;5281578;28;20463;-72
2023/10/25 07:48:23;;;;;;;4.07;0.50;;;;;;;;;;5281204;28;20040;-71
2023/10/25 07:51:01;;;;;;;2.45;0.60;;;;;;;;;;5280425;28;20100;-70
2023/10/25 07:53:32;;;;;;;1.60;0.50;;;;;;;;;;5281327;28;20052;-72
2023/10/25 07:56:03;;;;;;;4.78;0.70;;;;;;;;;;5280906;28;20059;-70
2023/10/25 07:58:34;;;;;;;3.88;0.85;;;;;;;;;;5281299;28;20031;-71
2023/10/25 08:01:06;;;;;;;4.82;0.60;;;;;;;;;;5281344;28;20033;-70
2023/10/25 08:03:37;;;;;;;2.58;0.50;;;;;;;;;;5280486;28;20509;-69
2023/10/25 08:06:09;;;;;;;1.52;0.40;;;;;;;;;;5281372;28;20017;-69
2023/10/25 08:08:40;;;;;;;3.33;0.50;;;;;;;;;;5281319;28;20025;-69
2023/10/25 08:11:12;;;;;;;1.95;0.40;;;;;;;;;;5280263;28;20082;-69
2023/10/25 08:13:44;;;;;;;2.10;0.40;;;;;;;;;;5281190;28;20063;-69
2023/10/25 08:16:15;;;;;;;2.47;0.50;;;;;;;;;;5284338;28;20056;-69
2023/10/25 08:18:46;;;;;;;1.50;0.50;;;;;;;;;;5284670;28;20421;-70
2023/10/25 08:21:17;;;;;;;2.78;0.60;;;;;;;;;;5285530;28;20060;-69
2023/10/25 08:23:51;;;;;;;4.00;0.60;;;;;;;;;;5284740;28;20021;-69
2023/10/25 08:26:25;;;;;;;1.27;0.40;;;;;;;;;;5284801;28;20501;-70
2023/10/25 08:28:56;;;;;;;2.75;0.50;;;;;;;;;;5284995;28;20032;-70
2023/10/25 08:31:28;;;;;;;1.95;0.38;;;;;;;;;;5284130;28;20467;-69
2023/10/25 08:33:59;;;;;;;3.33;0.73;;;;;;;;;;5284955;28;20063;-70
2023/10/25 08:36:30;;;;;;;2.63;0.50;;;;;;;;;;5285034;28;20379;-69
2023/10/25 08:39:02;;;;;;;3.85;0.65;;;;;;;;;;5284147;28;20104;-70
2023/10/25 08:41:34;;;;;;;2.72;0.50;;;;;;;;;;5284826;28;20012;-69
2023/10/25 08:44:06;;;;;;;2.78;0.60;;;;;;;;;;5284847;28;20020;-69
2023/10/25 08:46:38;;;;;;;3.22;0.63;;;;;;;;;;5284030;28;20078;-69
2023/10/25 08:49:10;;;;;;;2.22;1.02;;;;;;;;;;5284622;28;20056;-69
2023/10/25 08:51:45;;;;;;;3.17;0.60;;;;;;;;;;5284805;28;20060;-69
2023/10/25 08:54:20;;;;;;;3.70;0.70;;;;;;;;;;5284173;28;20383;-69
2023/10/25 08:56:51;;;;;;;3.20;0.52;;;;;;;;;;5284385;28;20021;-69
2023/10/25 08:59:23;;;;;;;3.75;0.63;;;;;;;;;;5284478;28;20352;-69
2023/10/25 09:01:54;;;;;;;2.78;0.68;;;;;;;;;;5284411;28;20074;-69
2023/10/25 09:04:25;;;;;;;2.95;0.70;;;;;;;;;;5284447;28;20017;-70
2023/10/25 09:06:57;;;;;;;5.28;0.70;;;;;;;;;;5283645;28;20078;-70
2023/10/25 09:09:37;;;;;;;2.55;0.60;;;;;;;;;;5284471;28;20025;-70
2023/10/25 09:12:18;;;;;;;4.72;0.80;;;;;;;;;;5284390;28;20048;-70
2023/10/25 09:14:49;;;;;;;3.35;0.65;;;;;;;;;;5283171;28;20017;-70
2023/10/25 09:17:20;;;;;;;6.38;0.98;;;;;;;;;;5284387;28;20074;-70
2023/10/25 09:19:51;;;;;;;7.30;1.17;;;;;;;;;;5284003;28;20032;-70
2023/10/25 09:22:25;;;;;;;2.25;0.70;;;;;;;;;;5283724;28;20071;-70
2023/10/25 09:25:00;;;;;;;2.63;0.60;;;;;;;;;;5283870;28;20020;-70
2023/10/25 09:27:39;;;;;;;3.92;0.88;;;;;;;;;;5282775;28;20020;-71
2023/10/25 09:30:10;;;;;;;;;;;;;;;;;;5284538;28;20039;-71
2023/10/25 09:32:41;;;;;;;2.75;0.70;;;;;;;;;;5283959;28;19905;-71
2023/10/25 09:35:13;;;;;;;3.97;0.80;;;;;;;;;;5283076;28;20028;-71
2023/10/25 09:37:44;;;;;;;4.35;0.70;;;;;;;;;;5283729;28;20476;-71
2023/10/25 09:40:15;;;;;;;5.63;0.85;;;;;;;;;;5284009;28;20028;-70
2023/10/25 09:42:49;;;;;;;2.15;0.70;;;;;;;;;;5282935;28;20074;-70
2023/10/25 09:45:23;;;;;;;3.53;1.00;;;;;;;;;;5284127;28;20485;-70
2023/10/25 09:47:59;;;;;;;3.95;0.95;;;;;;;;;;5283339;28;20552;-70
2023/10/25 09:50:36;;;;;;;4.30;0.90;;;;;;;;;;5282689;28;20129;-71
2023/10/25 09:53:11;;;;;;;6.40;0.90;;;;;;;;;;5283605;28;20024;-71
2023/10/25 09:55:45;;;;;;;6.25;1.05;;;;;;;;;;5282670;28;20387;-69
2023/10/25 09:58:17;;;;;;;3.30;1.15;;;;;;;;;;5283669;28;20483;-70
2023/10/25 10:00:49;;;;;;;3.80;1.70;;;;;;;;;;5283090;28;20103;-69
2023/10/25 10:03:35;;;;;;;3.95;1.60;;;;;;;;;;5282830;28;20103;-70
2023/10/25 10:06:19;;;;;;;4.03;1.60;;;;;;;;;;5283301;28;20036;-70
2023/10/25 10:08:56;;;;;;;4.65;1.10;;;;;;;;;;5282934;28;20435;-70
2023/10/25 10:11:34;;;;;;;3.03;1.67;;;;;;;;;;5282427;28;20362;-70
2023/10/25 10:14:24;;;;;;;4.00;1.85;;;;;;;;;;5283307;28;20028;-74
2023/10/25 10:16:59;;;;;;;6.80;2.88;;;;;;;;;;5282123;28;20036;-71
2023/10/25 10:19:31;;;;;;;3.95;1.92;;;;;;;;;;5282545;28;20017;-72
2023/10/25 10:22:13;;;;;;;5.78;2.42;;;;;;;;;;5282584;28;20158;-72
2023/10/25 10:24:44;;;;;;;4.05;2.03;;;;;;;;;;5281879;28;20024;-72
2023/10/25 10:27:16;;;;;;;3.13;2.08;;;;;;;;;;5282752;28;20047;-72
2023/10/25 10:29:51;;;;;;;5.88;2.10;;;;;;;;;;5282432;28;20012;-72
2023/10/25 10:32:27;;;;;;;3.97;1.65;;;;;;;;;;5282241;28;20027;-72
2023/10/25 10:34:59;;;;;;;3.38;1.58;;;;;;;;;;5282693;28;20031;-71
2023/10/25 10:37:31;;;;;;;4.95;1.85;;;;;;;;;;5282020;28;20115;-72
2023/10/25 10:40:02;;;;;;;4.40;1.90;;;;;;;;;;5281827;28;20066;-71
2023/10/25 10:42:34;;;;;;;4.60;2.22;;;;;;;;;;5282432;28;20024;-73
2023/10/25 10:45:06;;;;;;;5.43;2.55;;;;;;;;;;5281564;28;20274;-72
2023/10/25 10:47:42;;;;;;;3.20;1.77;;;;;;;;;;5281782;28;20449;-70
2023/10/25 10:50:18;;;;;;;3.38;1.38;;;;;;;;;;5281736;28;20024;-71
2023/10/25 10:52:50;;;;;;;6.10;2.63;;;;;;;;;;5281232;28;20089;-72
2023/10/25 10:55:22;;;;;;;3.15;1.40;;;;;;;;;;5281912;28;20024;-70
2023/10/25 10:57:53;;;;;;;3.55;1.50;;;;;;;;;;5281266;28;20467;-71
2023/10/25 11:00:25;;;;;;;5.85;1.55;;;;;;;;;;5280709;28;20020;-71
2023/10/25 11:02:59;;;;;;;2.78;1.48;;;;;;;;;;5281483;28;20054;-71
2023/10/25 11:05:31;;;;;;;4.47;2.42;;;;;;;;;;5282418;28;20024;-71
2023/10/25 11:08:02;;;;;;;4.82;2.15;;;;;;;;;;5280959;28;20027;-71
2023/10/25 11:10:34;;;;;;;2.85;1.52;;;;;;;;;;5282134;28;20021;-71
2023/10/25 11:13:06;;;;;;;4.43;1.55;;;;;;;;;;5281022;28;20028;-72
2023/10/25 11:15:38;;;;;;;4.05;1.75;;;;;;;;;;5281741;28;20436;-70
2023/10/25 11:18:09;;;;;;;4.47;1.50;;;;;;;;;;5281682;28;20545;-70
2023/10/25 11:20:41;;;;;;;4.57;2.08;;;;;;;;;;5281229;28;20491;-72
2023/10/25 11:23:14;;;;;;;3.85;1.67;;;;;;;;;;5282006;28;20055;-71
2023/10/25 11:25:45;;;;;;;4.78;1.83;;;;;;;;;;5281387;28;20445;-71
2023/10/25 11:28:18;;;;;;;3.55;1.52;;;;;;;;;;5281068;28;20028;-72
2023/10/25 11:30:50;;;;;;;2.83;1.70;;;;;;;;;;5281159;28;20040;-74
2023/10/25 11:33:21;;;;;;;2.63;1.17;;;;;;;;;;5282288;28;20036;-73
2023/10/25 11:35:54;;;;;;;3.08;1.33;;;;;;;;;;5280851;28;20048;-73
2023/10/25 11:38:25;;;;;;;5.22;1.75;;;;;;;;;;5281672;28;20039;-73
2023/10/25 11:40:57;;;;;;;2.58;1.33;;;;;;;;;;5281618;28;20383;-73
2023/10/25 11:43:28;;;;;;;5.60;1.77;;;;;;;;;;5280453;28;20020;-73
2023/10/25 11:46:02;;;;;;;3.17;1.80;;;;;;;;;;5281552;28;20040;-73
2023/10/25 11:48:34;;;;;;;4.20;1.50;;;;;;;;;;5280374;28;20048;-72
2023/10/25 11:51:06;;;;;;;3.05;1.83;;;;;;;;;;5285941;28;20370;-72
2023/10/25 11:53:37;;;;;;;3.88;1.75;;;;;;;;;;5285769;28;20021;-73
2023/10/25 11:56:08;;;;;;;4.38;1.85;;;;;;;;;;5284982;28;20020;-73
2023/10/25 11:58:39;;;;;;;3.38;1.80;;;;;;;;;;5285753;28;20107;-75
2023/10/25 12:01:11;;;;;;;6.20;2.17;;;;;;;;;;5285711;28;20474;-72
2023/10/25 12:03:42;;;;;;;4.38;2.40;;;;;;;;;;5284803;28;20470;-70
2023/10/25 12:06:13;;;;;;;3.05;2.00;;;;;;;;;;5285888;28;20017;-73
2023/10/25 12:08:44;;;;;;;3.08;2.30;;;;;;;;;;5285540;28;20103;-73
2023/10/25 12:11:15;;;;;;;4.13;2.17;;;;;;;;;;5284970;28;20020;-72
2023/10/25 12:13:47;;;;;;;2.83;1.77;;;;;;;;;;5284890;28;20021;-72
2023/10/25 12:16:18;;;;;;;3.15;2.13;;;;;;;;;;5285106;28;20039;-72
2023/10/25 12:18:49;;;;;;;2.72;2.05;;;;;;;;;;5284911;28;20024;-73
2023/10/25 12:21:20;;;;;;;5.00;2.60;;;;;;;;;;5285521;28;20024;-73
2023/10/25 12:23:52;;;;;;;4.28;2.50;;;;;;;;;;5284004;28;20025;-72
2023/10/25 12:26:23;;;;;;;4.70;2.38;;;;;;;;;;5285429;28;20021;-71
2023/10/25 12:28:54;;;;;;;4.68;2.58;;;;;;;;;;5285089;28;20060;-72
2023/10/25 12:31:25;;;;;;;4.72;1.90;;;;;;;;;;5284514;28;20023;-72
2023/10/25 12:33:56;;;;;;;5.35;2.30;;;;;;;;;;5284866;28;20057;-73
2023/10/25 12:36:28;;;;;;;4.65;2.60;;;;;;;;;;5285102;28;20479;-73
2023/10/25 12:38:59;;;;;;;4.38;3.00;;;;;;;;;;5284127;28;20021;-73
2023/10/25 12:41:30;;;;;;;3.70;2.20;;;;;;;;;;5284490;28;20025;-72
2023/10/25 12:44:08;;;;;;;3.80;2.53;;;;;;;;;;5280725;28;20281;-72
2023/10/25 12:46:39;;;;;;;4.35;2.15;;;;;;;;;;5283804;28;20061;-72
2023/10/25 12:49:11;;;;;;;3.33;2.55;;;;;;;;;;5284462;28;20057;-73
2023/10/25 12:51:43;;;;;;;3.10;2.25;;;;;;;;;;5283866;28;20338;-74
2023/10/25 12:54:14;;;;;;;4.35;2.53;;;;;;;;;;5284577;28;20020;-74
2023/10/25 12:56:45;;;;;;;4.53;2.45;;;;;;;;;;5283524;28;20227;-74
2023/10/25 12:59:17;;;;;;;5.05;2.42;;;;;;;;;;5283264;28;20044;-74
2023/10/25 13:01:51;;;;;;;6.50;2.58;;;;;;;;;;5281861;28;20017;-73
2023/10/25 13:04:23;;;;;;;4.10;2.17;;;;;;;;;;5284620;28;20028;-75
2023/10/25 13:06:54;;;;;;;5.38;3.20;;;;;;;;;;5283482;28;20016;-73
2023/10/25 13:09:25;;;;;;;3.45;2.13;;;;;;;;;;5284155;28;20025;-73
2023/10/25 13:11:57;;;;;;;3.25;2.88;;;;;;;;;;5284328;28;20028;-74
2023/10/25 13:14:28;;;;;;;3.47;2.33;;;;;;;;;;5283137;28;20028;-74
2023/10/25 13:16:59;;;;;;;4.28;2.50;;;;;;;;;;5283310;28;20582;-74
2023/10/25 13:19:30;;;;;;;3.25;2.15;;;;;;;;;;5284082;28;20039;-74
2023/10/25 13:22:01;;;;;;;3.17;2.65;;;;;;;;;;5283398;28;20024;-73
2023/10/25 13:24:32;;;;;;;3.17;2.13;;;;;;;;;;5284068;28;20016;-73
2023/10/25 13:27:04;;;;;;;3.47;2.03;;;;;;;;;;5283073;28;20024;-74
2023/10/25 13:29:35;;;;;;;3.72;2.08;;;;;;;;;;5283982;28;20141;-74
2023/10/25 13:32:07;;;;;;;4.20;1.98;;;;;;;;;;5283763;28;20024;-73
2023/10/25 13:34:39;;;;;;;2.97;2.17;;;;;;;;;;5283109;28;20048;-74
2023/10/25 13:37:10;;;;;;;2.08;1.88;;;;;;;;;;5283676;28;20033;-74
2023/10/25 13:39:42;;;;;;;5.05;2.47;;;;;;;;;;5283651;28;20017;-74
2023/10/25 13:42:13;;;;;;;3.60;2.45;;;;;;;;;;5282874;28;20028;-74
2023/10/25 13:44:44;;;;;;;2.85;2.30;;;;;;;;;;5283474;28;20459;-74
2023/10/25 13:47:15;;;;;;;3.75;1.83;;;;;;;;;;5283601;28;20056;-74
2023/10/25 13:49:46;;;;;;;3.75;1.95;;;;;;;;;;5282448;28;20052;-74
2023/10/25 13:52:20;;;;;;;2.85;1.67;;;;;;;;;;5283613;28;20378;-74
2023/10/25 13:54:51;;;;;;;4.78;2.00;;;;;;;;;;5282163;28;20021;-74
2023/10/25 13:57:22;;;;;;;3.85;2.35;;;;;;;;;;5283620;28;20437;-74
2023/10/25 13:59:53;;;;;;;3.60;2.35;;;;;;;;;;5282963;28;20044;-76
2023/10/25 14:02:24;;;;;;;3.10;1.85;;;;;;;;;;5282387;28;20023;-76
2023/10/25 14:04:56;;;;;;;4.00;2.15;;;;;;;;;;5282716;28;20375;-74
2023/10/25 14:07:27;;;;;;;4.55;2.42;;;;;;;;;;5283224;28;20028;-74
2023/10/25 14:09:58;;;;;;;2.55;1.85;;;;;;;;;;5282253;28;20024;-73
2023/10/25 14:12:30;;;;;;;2.03;1.40;;;;;;;;;;5281850;28;20082;-75
2023/10/25 14:15:01;;;;;;;2.60;1.60;;;;;;;;;;5282613;28;20020;-73
2023/10/25 14:17:32;;;;;;;2.35;1.70;;;;;;;;;;5278643;28;20025;-73
2023/10/25 14:20:03;;;;;;;2.08;1.58;;;;;;;;;;5281915;28;20029;-74
2023/10/25 14:22:35;;;;;;;2.47;1.70;;;;;;;;;;5281345;28;20098;-74
2023/10/25 14:25:06;;;;;;;2.97;1.70;;;;;;;;;;5281218;28;20052;-75
2023/10/25 14:27:37;;;;;;;2.25;1.73;;;;;;;;;;5280243;28;20259;-76
2023/10/25 14:30:09;;;;;;;3.78;2.42;;;;;;;;;;5279756;28;20023;-76
2023/10/25 14:32:40;;;;;;;4.80;3.83;;;;;;;;;;5279440;28;20047;-77
2023/10/25 14:35:11;;;;;;;3.28;2.60;;;;;;;;;;5280314;28;20562;-76
2023/10/25 14:37:42;;;;;;;3.10;2.80;;;;;;;;;;5279769;28;20403;-77
2023/10/25 14:40:13;;;;;;;3.75;1.80;;;;;;;;;;5280348;28;20036;-76
2023/10/25 14:42:45;;;;;;;3.53;1.60;;;;;;;;;;5281331;28;20262;-72
2023/10/25 14:45:16;;;;;;;2.20;1.65;;;;;;;;;;5281807;28;20123;-72
2023/10/25 14:47:47;;;;;;;3.35;2.47;;;;;;;;;;5281603;28;20045;-75
2023/10/25 14:50:18;;;;;;;2.50;2.22;;;;;;;;;;5282453;28;20468;-75
2023/10/25 14:52:49;;;;;;;3.55;2.88;;;;;;;;;;5278848;28;20032;-75
2023/10/25 14:55:21;;;;;;;5.07;2.58;;;;;;;;;;5282504;28;20066;-74
2023/10/25 14:57:52;;;;;;;2.00;1.63;;;;;;;;;;5281833;28;20025;-73
2023/10/25 15:00:23;;;;;;;2.00;1.50;;;;;;;;;;5281351;28;20016;-74
2023/10/25 15:02:54;;;;;;;1.70;1.35;;;;;;;;;;5281497;28;20021;-74
2023/10/25 15:05:25;;;;;;;3.15;1.85;;;;;;;;;;5281209;28;20078;-75
2023/10/25 15:07:57;;;;;;;3.05;1.60;;;;;;;;;;5282147;28;20029;-74
2023/10/25 15:10:31;;;;;;;2.28;2.05;;;;;;;;;;5281858;28;20013;-74